createdAt,value
2023-03-21T00:01:55.164Z,7.50
2023-03-21T00:04:24.139Z,7.50
2023-03-21T00:06:52.540Z,7.40
2023-03-21T00:09:20.879Z,7.30
2023-03-21T00:11:49.239Z,7.20
2023-03-21T00:14:18.908Z,7.10
2023-03-21T00:16:50.813Z,6.70
2023-03-21T00:19:21.984Z,7.00
2023-03-21T00:22:06.479Z,7.00
2023-03-21T00:24:36.491Z,7.00
2023-03-21T00:29:53.693Z,6.80
2023-03-21T00:32:22.900Z,6.80
2023-03-21T00:35:34.445Z,6.80
2023-03-21T00:37:41.212Z,6.80
2023-03-21T00:40:25.455Z,6.90
2023-03-21T00:42:57.794Z,6.90
2023-03-21T00:45:27.957Z,7.00
2023-03-21T00:47:56.298Z,7.00
2023-03-21T00:50:26.372Z,7.00
2023-03-21T00:52:57.898Z,6.90
2023-03-21T00:55:27.069Z,6.50
2023-03-21T00:58:01.632Z,6.80
2023-03-21T01:00:30.936Z,7.30
2023-03-21T01:03:17.574Z,6.80
2023-03-21T01:06:05.413Z,6.80
2023-03-21T01:08:50.421Z,6.90
2023-03-21T01:11:21.639Z,7.00
2023-03-21T01:13:56.304Z,7.00
2023-03-21T01:16:28.660Z,7.10
2023-03-21T01:18:57.148Z,7.10
2023-03-21T01:21:27.009Z,7.10
2023-03-21T01:23:57.795Z,7.10
2023-03-21T01:26:26.404Z,7.10
2023-03-21T01:28:54.490Z,7.20
2023-03-21T01:31:22.712Z,7.50
2023-03-21T01:33:50.949Z,7.30
2023-03-21T01:36:25.210Z,7.20
2023-03-21T01:38:59.637Z,7.20
2023-03-21T01:41:42.361Z,7.20
2023-03-21T01:44:19.995Z,7.20
2023-03-21T01:47:07.338Z,7.20
2023-03-21T01:49:53.717Z,7.20
2023-03-21T01:52:37.119Z,7.10
2023-03-21T01:55:16.313Z,7.20
2023-03-21T01:58:05.785Z,7.10
2023-03-21T02:00:51.499Z,7.20
2023-03-21T02:03:38.766Z,7.10
2023-03-21T02:06:31.950Z,7.00
2023-03-21T02:09:11.047Z,6.90
2023-03-21T02:11:40.835Z,6.90
2023-03-21T02:14:26.689Z,6.80
2023-03-21T02:17:11.595Z,6.80
2023-03-21T02:20:08.137Z,6.70
2023-03-21T02:22:59.528Z,6.60
2023-03-21T02:26:08.803Z,6.60
2023-03-21T02:28:42.853Z,6.40
2023-03-21T02:31:24.932Z,6.30
2023-03-21T02:34:22.040Z,6.20
2023-03-21T02:37:06.839Z,6.20
2023-03-21T02:39:46.140Z,6.00
2023-03-21T02:42:18.638Z,6.00
2023-03-21T02:44:51.271Z,5.90
2023-03-21T02:47:26.470Z,5.80
2023-03-21T02:50:02.279Z,5.80
2023-03-21T02:52:39.497Z,5.70
2023-03-21T02:55:15.455Z,5.70
2023-03-21T02:57:59.223Z,5.70
2023-03-21T03:00:33.814Z,5.60
2023-03-21T03:03:09.976Z,5.60
2023-03-21T03:05:45.214Z,5.50
2023-03-21T03:08:41.297Z,5.50
2023-03-21T03:11:25.719Z,5.50
2023-03-21T03:14:31.666Z,5.40
2023-03-21T03:17:09.145Z,5.40
2023-03-21T03:19:50.575Z,5.40
2023-03-21T03:22:24.523Z,5.40
2023-03-21T03:25:04.812Z,5.40
2023-03-21T03:27:42.463Z,5.50
2023-03-21T03:30:13.861Z,5.60
2023-03-21T03:32:47.516Z,5.70
2023-03-21T03:35:17.991Z,5.70
2023-03-21T03:37:51.793Z,5.70
2023-03-21T03:40:27.110Z,5.70
2023-03-21T03:43:11.406Z,5.70
2023-03-21T03:45:47.457Z,5.60
2023-03-21T03:48:25.216Z,5.60
2023-03-21T03:51:01.431Z,5.50
2023-03-21T03:53:46.014Z,5.40
2023-03-21T03:56:15.716Z,5.30
2023-03-21T03:58:45.899Z,5.30
2023-03-21T04:01:17.685Z,5.70
2023-03-21T04:03:53.008Z,5.10
2023-03-21T04:06:29.060Z,5.10
2023-03-21T04:08:58.932Z,5.10
2023-03-21T04:11:32.976Z,5.00
2023-03-21T04:14:01.963Z,5.10
2023-03-21T04:16:33.840Z,5.10
2023-03-21T04:19:03.946Z,5.10
2023-03-21T04:21:31.994Z,5.20
2023-03-21T04:24:02.565Z,5.20
2023-03-21T04:26:33.594Z,5.20
2023-03-21T04:29:21.696Z,5.20
2023-03-21T04:32:17.530Z,5.20
2023-03-21T04:34:54.096Z,5.20
2023-03-21T04:37:24.505Z,5.20
2023-03-21T04:39:54.491Z,5.30
2023-03-21T04:42:24.389Z,5.30
2023-03-21T04:44:52.523Z,5.40
2023-03-21T04:47:21.985Z,5.40
2023-03-21T04:49:50.180Z,5.40
2023-03-21T04:52:18.827Z,5.40
2023-03-21T04:54:47.522Z,5.40
2023-03-21T04:57:15.922Z,5.30
2023-03-21T04:59:46.931Z,5.30
2023-03-21T05:02:16.345Z,5.40
2023-03-21T05:04:45.098Z,5.40
2023-03-21T05:07:13.119Z,5.40
2023-03-21T05:09:41.466Z,5.40
2023-03-21T05:12:09.830Z,5.40
2023-03-21T05:14:37.949Z,5.50
2023-03-21T05:17:08.349Z,5.50
2023-03-21T05:19:40.890Z,5.50
2023-03-21T05:22:12.110Z,5.50
2023-03-21T05:24:42.144Z,5.60
2023-03-21T05:27:34.008Z,5.60
2023-03-21T05:30:06.069Z,5.70
2023-03-21T05:32:37.056Z,5.80
2023-03-21T05:35:06.867Z,5.90
2023-03-21T05:37:35.162Z,5.90
2023-03-21T05:40:05.243Z,6.00
2023-03-21T05:42:34.757Z,6.20
2023-03-21T05:45:12.585Z,6.30
2023-03-21T05:47:42.645Z,6.40
2023-03-21T05:50:14.277Z,6.30
2023-03-21T05:52:46.156Z,6.60
2023-03-21T05:55:17.088Z,6.60
2023-03-21T05:57:45.307Z,6.70
2023-03-21T06:00:24.589Z,6.70
2023-03-21T06:03:11.319Z,6.80
2023-03-21T06:05:57.898Z,6.80
2023-03-21T06:08:30.503Z,6.90
2023-03-21T06:10:59.300Z,7.00
2023-03-21T06:13:27.459Z,7.00
2023-03-21T06:15:56.030Z,7.10
2023-03-21T06:18:28.525Z,7.20
2023-03-21T06:21:04.453Z,7.20
2023-03-21T06:23:33.543Z,7.20
2023-03-21T06:26:01.816Z,7.50
2023-03-21T06:28:30.073Z,7.30
2023-03-21T06:30:58.331Z,7.40
2023-03-21T06:33:29.955Z,7.50
2023-03-21T06:36:00.416Z,7.50
2023-03-21T06:38:29.666Z,7.70
2023-03-21T06:40:57.966Z,7.70
2023-03-21T06:43:28.965Z,7.80
2023-03-21T06:45:57.154Z,7.90
2023-03-21T06:48:26.073Z,8.00
2023-03-21T06:50:56.287Z,8.10
2023-03-21T06:53:28.191Z,8.20
2023-03-21T06:56:16.464Z,8.30
2023-03-21T06:58:46.590Z,8.40
2023-03-21T07:01:31.250Z,8.40
2023-03-21T07:04:07.475Z,8.50
2023-03-21T07:06:38.253Z,8.50
2023-03-21T07:09:07.760Z,8.60
2023-03-21T07:11:37.635Z,8.70
2023-03-21T07:14:07.776Z,9.20
2023-03-21T07:16:36.466Z,8.80
2023-03-21T07:19:05.079Z,8.90
2023-03-21T07:21:33.307Z,9.00
2023-03-21T07:24:03.529Z,9.10
2023-03-21T07:26:31.692Z,9.20
2023-03-21T07:29:01.024Z,9.30
2023-03-21T07:31:29.601Z,9.40
2023-03-21T07:33:58.200Z,9.50
2023-03-21T07:36:26.478Z,9.60
2023-03-21T07:38:54.643Z,9.70
2023-03-21T07:41:29.184Z,9.80
2023-03-21T07:44:11.237Z,9.80
2023-03-21T07:46:39.517Z,9.80
2023-03-21T07:49:08.861Z,9.90
2023-03-21T07:51:38.135Z,9.90
2023-03-21T07:54:06.907Z,9.90
2023-03-21T07:56:36.895Z,10.00
2023-03-21T07:59:05.416Z,10.10
2023-03-21T08:01:33.864Z,10.20
2023-03-21T08:04:02.131Z,10.30
2023-03-21T08:06:32.576Z,10.30
2023-03-21T08:09:01.588Z,10.50
2023-03-21T08:11:31.568Z,10.50
2023-03-21T08:14:01.825Z,10.90
2023-03-21T08:16:30.101Z,10.70
2023-03-21T08:18:58.328Z,10.80
2023-03-21T08:21:26.480Z,10.90
2023-03-21T08:23:55.242Z,10.90
2023-03-21T08:26:27.737Z,10.90
2023-03-21T08:28:55.939Z,11.00
2023-03-21T08:31:25.640Z,11.00
2023-03-21T08:33:54.809Z,11.00
2023-03-21T08:36:23.557Z,11.00
2023-03-21T08:38:57.011Z,11.00
2023-03-21T08:41:27.695Z,11.00
2023-03-21T08:43:55.861Z,11.10
2023-03-21T08:46:25.406Z,11.30
2023-03-21T08:48:53.634Z,11.20
2023-03-21T08:51:22.054Z,11.40
2023-03-21T08:53:50.994Z,11.60
2023-03-21T08:56:19.292Z,11.60
2023-03-21T08:58:47.426Z,11.70
2023-03-21T09:01:15.896Z,11.80
2023-03-21T09:03:45.663Z,11.80
2023-03-21T09:06:14.263Z,11.80
2023-03-21T09:08:43.769Z,12.00
2023-03-21T09:11:12.156Z,12.10
2023-03-21T09:13:40.281Z,12.20
2023-03-21T09:16:09.248Z,12.20
2023-03-21T09:18:47.031Z,12.30
2023-03-21T09:21:18.631Z,12.40
2023-03-21T09:23:48.366Z,12.60
2023-03-21T09:26:16.920Z,12.70
2023-03-21T09:28:46.233Z,12.80
2023-03-21T09:31:16.451Z,12.90
2023-03-21T09:33:45.061Z,13.00
2023-03-21T09:36:17.026Z,13.20
2023-03-21T09:38:47.444Z,13.30
2023-03-21T09:41:29.350Z,13.60
2023-03-21T09:44:12.780Z,13.80
2023-03-21T09:46:45.059Z,14.10
2023-03-21T09:49:20.398Z,14.40
2023-03-21T09:51:52.816Z,14.70
2023-03-21T09:54:27.282Z,15.00
2023-03-21T09:56:58.198Z,15.10
2023-03-21T09:59:33.869Z,15.20
2023-03-21T10:02:03.306Z,15.20
2023-03-21T10:04:33.957Z,15.40
2023-03-21T10:07:04.933Z,15.50
2023-03-21T10:09:38.554Z,15.60
2023-03-21T10:12:11.245Z,15.70
2023-03-21T10:14:43.457Z,15.70
2023-03-21T10:17:23.320Z,15.70
2023-03-21T10:19:56.825Z,15.60
2023-03-21T10:22:25.764Z,15.50
2023-03-21T10:24:55.627Z,15.50
2023-03-21T10:27:24.052Z,15.70
2023-03-21T10:29:53.404Z,15.50
2023-03-21T10:32:23.043Z,15.60
2023-03-21T10:37:25.556Z,15.60
2023-03-21T10:39:56.353Z,15.60
2023-03-21T10:42:27.112Z,15.60
2023-03-21T10:44:58.515Z,15.50
2023-03-21T10:47:32.792Z,15.40
2023-03-21T10:50:08.464Z,15.20
2023-03-21T10:52:43.724Z,15.00
2023-03-21T10:55:22.802Z,14.70
2023-03-21T10:57:57.679Z,14.40
2023-03-21T11:00:31.873Z,14.10
2023-03-21T11:03:00.572Z,13.80
2023-03-21T11:05:36.656Z,13.60
2023-03-21T11:08:07.848Z,13.40
2023-03-21T11:10:39.150Z,13.30
2023-03-21T11:13:12.156Z,13.30
2023-03-21T11:15:47.638Z,13.30
2023-03-21T11:18:19.150Z,13.30
2023-03-21T11:20:52.676Z,13.40
2023-03-21T11:23:21.251Z,13.60
2023-03-21T11:25:52.392Z,13.70
2023-03-21T11:28:24.136Z,13.90
2023-03-21T11:30:56.148Z,14.00
2023-03-21T11:33:28.166Z,14.40
2023-03-21T11:36:01.563Z,14.20
2023-03-21T11:38:33.178Z,14.10
2023-03-21T11:41:03.689Z,14.40
2023-03-21T11:43:33.714Z,14.20
2023-03-21T11:46:07.787Z,14.30
2023-03-21T11:48:40.673Z,14.40
2023-03-21T11:51:21.063Z,14.40
2023-03-21T11:53:54.660Z,14.40
2023-03-21T11:56:33.434Z,14.30
2023-03-21T11:59:27.786Z,14.10
2023-03-21T12:02:11.257Z,14.00
2023-03-21T12:04:42.271Z,14.00
2023-03-21T12:07:27.568Z,13.60
2023-03-21T12:10:04.836Z,13.60
2023-03-21T12:12:43.361Z,13.50
2023-03-21T12:15:18.181Z,13.50
2023-03-21T12:17:57.213Z,13.60
2023-03-21T12:20:41.318Z,13.70
2023-03-21T12:23:40.427Z,13.70
2023-03-21T12:26:21.050Z,13.90
2023-03-21T12:29:15.557Z,14.00
2023-03-21T12:31:55.945Z,14.30
2023-03-21T12:34:43.583Z,14.60
2023-03-21T12:37:18.580Z,14.70
2023-03-21T12:39:49.631Z,14.90
2023-03-21T12:42:39.955Z,15.00
2023-03-21T12:45:16.606Z,15.10
2023-03-21T12:47:51.232Z,15.10
2023-03-21T12:50:25.753Z,15.10
2023-03-21T12:52:57.614Z,15.00
2023-03-21T12:55:28.905Z,15.00
2023-03-21T12:58:01.533Z,14.90
2023-03-21T13:00:36.164Z,14.90
2023-03-21T13:03:07.779Z,15.00
2023-03-21T13:05:39.889Z,15.10
2023-03-21T13:08:13.012Z,15.10
2023-03-21T13:10:42.776Z,15.10
2023-03-21T13:13:20.621Z,15.00
2023-03-21T13:16:10.140Z,14.90
2023-03-21T13:18:51.313Z,14.70
2023-03-21T13:21:25.826Z,14.50
2023-03-21T13:24:01.934Z,14.30
2023-03-21T13:26:38.115Z,14.20
2023-03-21T13:29:15.280Z,14.10
2023-03-21T13:31:52.805Z,14.10
2023-03-21T13:34:23.504Z,14.10
2023-03-21T13:36:53.035Z,14.10
2023-03-21T13:39:25.948Z,14.10
2023-03-21T13:41:54.835Z,14.20
2023-03-21T13:44:33.984Z,14.20
2023-03-21T13:47:05.765Z,14.30
2023-03-21T13:49:35.833Z,14.30
2023-03-21T13:52:20.291Z,14.50
2023-03-21T13:54:53.278Z,14.50
2023-03-21T13:57:40.042Z,14.60
2023-03-21T14:00:21.408Z,14.60
2023-03-21T14:03:00.906Z,14.70
2023-03-21T14:05:29.849Z,14.60
2023-03-21T14:08:13.585Z,14.60
2023-03-21T14:10:46.328Z,14.70
2023-03-21T14:13:19.853Z,14.80
2023-03-21T14:15:56.040Z,14.90
2023-03-21T14:18:51.627Z,14.90
2023-03-21T14:21:24.284Z,14.80
2023-03-21T14:24:02.103Z,14.80
2023-03-21T14:26:33.061Z,14.70
2023-03-21T14:29:07.128Z,14.80
2023-03-21T14:31:36.388Z,14.90
2023-03-21T14:34:07.465Z,14.80
2023-03-21T14:36:43.125Z,14.70
2023-03-21T14:39:17.446Z,14.60
2023-03-21T14:41:50.119Z,14.60
2023-03-21T14:44:25.339Z,14.60
2023-03-21T14:47:05.180Z,14.50
2023-03-21T14:49:36.230Z,14.60
2023-03-21T14:52:07.185Z,14.70
2023-03-21T14:54:36.526Z,14.70
2023-03-21T14:57:06.557Z,14.70
2023-03-21T14:59:38.402Z,14.80
2023-03-21T15:02:17.374Z,14.90
2023-03-21T15:04:51.518Z,14.90
2023-03-21T15:07:30.535Z,15.00
2023-03-21T15:10:00.927Z,14.90
2023-03-21T15:12:29.075Z,14.90
2023-03-21T15:14:58.098Z,14.90
2023-03-21T15:17:27.356Z,14.90
2023-03-21T15:19:56.783Z,14.80
2023-03-21T15:22:33.471Z,14.80
2023-03-21T15:25:05.917Z,14.70
2023-03-21T15:27:41.881Z,14.70
2023-03-21T15:30:21.073Z,14.70
2023-03-21T15:32:49.940Z,14.70
2023-03-21T15:35:27.064Z,14.60
2023-03-21T15:37:57.526Z,14.60
2023-03-21T15:40:28.814Z,14.60
2023-03-21T15:43:07.526Z,14.60
2023-03-21T15:45:35.729Z,14.60
2023-03-21T15:48:08.899Z,14.60
2023-03-21T15:50:41.651Z,14.60
2023-03-21T15:53:15.606Z,14.60
2023-03-21T15:55:48.140Z,14.50
2023-03-21T15:58:20.535Z,14.50
2023-03-21T16:00:55.555Z,14.40
2023-03-21T16:03:27.174Z,14.30
2023-03-21T16:06:19.543Z,14.30
2023-03-21T16:08:49.917Z,14.20
2023-03-21T16:11:24.220Z,14.20
2023-03-21T16:13:53.646Z,14.10
2023-03-21T16:16:23.682Z,14.10
2023-03-21T16:18:52.410Z,14.10
2023-03-21T16:21:24.829Z,14.10
2023-03-21T16:23:53.161Z,13.80
2023-03-21T16:26:24.372Z,14.00
2023-03-21T16:28:53.064Z,14.00
2023-03-21T16:31:22.878Z,14.00
2023-03-21T16:33:51.918Z,13.90
2023-03-21T16:36:24.213Z,13.90
2023-03-21T16:38:53.975Z,13.80
2023-03-21T16:41:23.291Z,13.80
2023-03-21T16:43:52.196Z,13.80
2023-03-21T16:46:21.926Z,13.80
2023-03-21T16:48:52.262Z,13.70
2023-03-21T16:51:26.271Z,13.70
2023-03-21T16:53:54.736Z,13.60
2023-03-21T16:56:25.657Z,13.50
2023-03-21T16:58:55.349Z,13.50
2023-03-21T17:01:25.943Z,13.60
2023-03-21T17:03:55.059Z,13.50
2023-03-21T17:06:28.987Z,13.50
2023-03-21T17:08:59.119Z,13.40
2023-03-21T17:11:31.599Z,13.30
2023-03-21T17:13:59.673Z,13.30
2023-03-21T17:16:27.970Z,13.30
2023-03-21T17:18:56.421Z,13.20
2023-03-21T17:21:27.490Z,13.10
2023-03-21T17:23:56.805Z,13.00
2023-03-21T17:26:26.894Z,12.90
2023-03-21T17:28:56.746Z,12.80
2023-03-21T17:31:26.653Z,12.80
2023-03-21T17:33:55.524Z,12.70
2023-03-21T17:36:29.248Z,12.60
2023-03-21T17:38:57.941Z,12.50
2023-03-21T17:41:26.606Z,12.40
2023-03-21T17:43:55.755Z,12.30
2023-03-21T17:46:27.218Z,12.50
2023-03-21T17:48:56.354Z,12.10
2023-03-21T17:51:29.960Z,12.10
2023-03-21T17:53:59.853Z,12.00
2023-03-21T17:56:30.943Z,12.00
2023-03-21T17:59:00.911Z,11.90
2023-03-21T18:01:30.927Z,11.90
2023-03-21T18:04:02.189Z,11.90
2023-03-21T18:06:30.450Z,11.80
2023-03-21T18:09:00.486Z,11.80
2023-03-21T18:11:28.945Z,11.80
2023-03-21T18:14:10.238Z,11.80
2023-03-21T18:16:43.972Z,11.70
2023-03-21T18:19:13.208Z,11.70
2023-03-21T18:21:44.886Z,11.70
2023-03-21T18:24:15.754Z,11.60
2023-03-21T18:26:46.725Z,11.50
2023-03-21T18:32:07.903Z,11.50
2023-03-21T18:34:38.155Z,11.50
2023-03-21T18:37:07.970Z,11.40
2023-03-21T18:39:38.693Z,11.30
2023-03-21T18:42:07.566Z,11.30
2023-03-21T18:44:45.319Z,11.20
2023-03-21T18:47:13.857Z,11.20
2023-03-21T18:50:12.420Z,11.10
2023-03-21T18:52:29.967Z,11.30
2023-03-21T18:55:01.382Z,11.00
2023-03-21T18:57:36.978Z,11.00
2023-03-21T19:00:12.543Z,10.90
2023-03-21T19:02:45.881Z,10.80
2023-03-21T19:05:14.839Z,10.70
2023-03-21T19:07:43.021Z,10.70
2023-03-21T19:10:18.171Z,10.60
2023-03-21T19:12:47.758Z,10.60
2023-03-21T19:15:18.012Z,10.60
2023-03-21T19:18:28.629Z,10.50
2023-03-21T19:20:35.626Z,10.50
2023-03-21T19:23:03.844Z,10.40
2023-03-21T19:25:33.306Z,10.40
2023-03-21T19:28:01.613Z,10.40
2023-03-21T19:30:29.728Z,10.30
2023-03-21T19:32:58.016Z,10.20
2023-03-21T19:35:31.931Z,10.20
2023-03-21T19:38:00.200Z,10.10
2023-03-21T19:40:28.660Z,10.00
2023-03-21T19:42:58.825Z,10.00
2023-03-21T19:45:27.252Z,9.90
2023-03-21T19:47:58.211Z,9.80
2023-03-21T19:51:20.230Z,9.70
2023-03-21T19:53:17.803Z,10.30
2023-03-21T19:55:46.703Z,9.70
2023-03-21T19:58:16.628Z,9.70
2023-03-21T20:00:44.902Z,9.60
2023-03-21T20:03:13.402Z,9.60
2023-03-21T20:05:41.456Z,9.60
2023-03-21T20:08:11.055Z,9.50
2023-03-21T20:10:39.908Z,9.60
2023-03-21T20:13:08.354Z,9.50
2023-03-21T20:15:45.978Z,9.50
2023-03-21T20:18:16.467Z,9.60
2023-03-21T20:20:44.682Z,9.60
2023-03-21T20:23:16.153Z,9.60
2023-03-21T20:25:45.768Z,9.60
2023-03-21T20:28:17.189Z,9.50
2023-03-21T20:30:58.266Z,9.40
2023-03-21T20:33:26.908Z,9.40
2023-03-21T20:38:51.390Z,9.40
2023-03-21T20:41:19.629Z,9.30
2023-03-21T20:44:28.486Z,9.30
2023-03-21T20:46:38.037Z,9.40
2023-03-21T20:49:07.425Z,9.20
2023-03-21T20:54:24.455Z,9.10
2023-03-21T20:56:52.520Z,9.10
2023-03-21T20:59:26.422Z,9.00
2023-03-21T21:01:58.189Z,9.00
2023-03-21T21:07:21.217Z,8.90
2023-03-21T21:09:50.415Z,9.00
2023-03-21T21:12:19.743Z,9.00
2023-03-21T21:14:49.116Z,9.00
2023-03-21T21:17:31.098Z,9.10
2023-03-21T21:20:17.129Z,9.30
2023-03-21T21:22:58.515Z,9.30
2023-03-21T21:25:30.345Z,9.40
2023-03-21T21:27:58.452Z,9.50
2023-03-21T21:30:26.538Z,9.60
2023-03-21T21:32:56.141Z,9.60
2023-03-21T21:35:24.297Z,9.70
2023-03-21T21:37:52.412Z,9.70
2023-03-21T21:40:23.229Z,9.70
2023-03-21T21:42:51.377Z,9.80
2023-03-21T21:45:20.134Z,9.80
2023-03-21T21:47:48.358Z,9.80
2023-03-21T21:50:18.902Z,9.90
2023-03-21T21:52:52.897Z,9.90
2023-03-21T21:55:21.277Z,9.90
2023-03-21T21:57:50.973Z,9.90
2023-03-21T22:00:22.621Z,9.90
2023-03-21T22:02:50.715Z,9.90
2023-03-21T22:05:20.990Z,10.00
2023-03-21T22:07:52.079Z,9.90
2023-03-21T22:10:21.632Z,10.00
2023-03-21T22:12:50.015Z,10.00
2023-03-21T22:15:19.344Z,10.00
2023-03-21T22:17:47.964Z,10.00
2023-03-21T22:20:18.048Z,9.90
2023-03-21T22:22:48.642Z,10.00
2023-03-21T22:25:18.384Z,10.10
2023-03-21T22:27:47.324Z,10.00
2023-03-21T22:30:17.555Z,10.00
2023-03-21T22:32:56.418Z,10.00
2023-03-21T22:35:31.141Z,10.00
2023-03-21T22:38:00.744Z,10.10
2023-03-21T22:40:28.902Z,10.10
2023-03-21T22:42:57.005Z,10.10
2023-03-21T22:45:25.134Z,10.10
2023-03-21T22:47:53.314Z,10.10
2023-03-21T22:50:21.539Z,10.10
2023-03-21T22:52:49.620Z,10.10
2023-03-21T22:55:19.185Z,10.10
2023-03-21T22:57:47.465Z,10.10
2023-03-21T23:00:16.616Z,10.10
2023-03-21T23:02:45.712Z,10.10
2023-03-21T23:05:13.938Z,10.10
2023-03-21T23:07:42.029Z,10.10
2023-03-21T23:10:12.117Z,10.10
2023-03-21T23:12:42.158Z,10.00
2023-03-21T23:15:11.531Z,10.00
2023-03-21T23:17:40.280Z,10.00
2023-03-21T23:20:09.737Z,10.00
2023-03-21T23:22:38.213Z,10.00
2023-03-21T23:25:09.066Z,10.00
2023-03-21T23:27:37.492Z,10.00
2023-03-21T23:30:08.395Z,9.90
2023-03-21T23:32:36.952Z,10.00
2023-03-21T23:35:05.784Z,9.90
2023-03-21T23:37:33.804Z,9.90
2023-03-21T23:40:02.185Z,9.90
2023-03-21T23:42:31.092Z,9.80
2023-03-21T23:44:59.292Z,9.70
2023-03-21T23:47:30.916Z,9.70
2023-03-21T23:49:58.979Z,9.70
2023-03-21T23:52:27.395Z,9.70
2023-03-21T23:54:55.506Z,9.70
2023-03-21T23:57:23.597Z,9.70
2023-03-21T23:59:54.656Z,9.80
